createdAt,value
2023-03-13T00:01:19.531Z,0.40
2023-03-13T00:03:48.341Z,0.90
2023-03-13T00:06:17.587Z,1.23
2023-03-13T00:08:46.325Z,0.60
2023-03-13T00:11:17.828Z,1.23
2023-03-13T00:13:46.466Z,0.87
2023-03-13T00:16:16.847Z,0.70
2023-03-13T00:18:49.313Z,1.73
2023-03-13T00:21:20.312Z,1.47
2023-03-13T00:23:49.656Z,0.50
2023-03-13T00:26:21.602Z,1.73
2023-03-13T00:28:51.046Z,0.67
2023-03-13T00:31:21.583Z,2.77
2023-03-13T00:33:53.724Z,1.37
2023-03-13T00:36:23.953Z,2.00
2023-03-13T00:38:54.690Z,1.70
2023-03-13T00:41:26.026Z,0.47
2023-03-13T00:43:54.947Z,0.63
2023-03-13T00:46:24.934Z,0.90
2023-03-13T00:48:53.632Z,1.93
2023-03-13T00:51:23.925Z,2.73
2023-03-13T00:53:52.543Z,1.17
2023-03-13T00:56:22.056Z,0.83
2023-03-13T00:58:52.666Z,1.10
2023-03-13T01:01:23.256Z,1.37
2023-03-13T01:03:54.173Z,1.10
2023-03-13T01:06:25.508Z,1.63
2023-03-13T01:08:55.722Z,1.17
2023-03-13T01:11:28.983Z,1.43
2023-03-13T01:14:00.721Z,1.80
2023-03-13T01:16:31.186Z,1.60
2023-03-13T01:19:02.931Z,2.03
2023-03-13T01:21:32.070Z,0.70
2023-03-13T01:24:00.733Z,1.00
2023-03-13T01:26:29.620Z,0.80
2023-03-13T01:28:59.548Z,1.17
2023-03-13T01:31:30.600Z,0.83
2023-03-13T01:34:02.587Z,1.80
2023-03-13T01:36:31.583Z,1.43
2023-03-13T01:39:01.915Z,1.07
2023-03-13T01:41:32.571Z,3.33
2023-03-13T01:44:02.819Z,0.87
2023-03-13T01:46:34.973Z,0.50
2023-03-13T01:49:14.122Z,1.00
2023-03-13T01:52:05.566Z,0.97
2023-03-13T01:54:41.606Z,1.70
2023-03-13T01:57:15.310Z,0.80
2023-03-13T01:59:49.400Z,1.23
2023-03-13T02:02:18.156Z,1.03
2023-03-13T02:04:50.194Z,1.00
2023-03-13T02:07:24.207Z,0.93
2023-03-13T02:09:55.924Z,1.67
2023-03-13T02:12:30.598Z,1.17
2023-03-13T02:15:03.549Z,1.00
2023-03-13T02:17:33.827Z,1.27
2023-03-13T02:20:05.285Z,0.97
2023-03-13T02:22:41.813Z,3.60
2023-03-13T02:25:21.886Z,2.20
2023-03-13T02:27:54.168Z,4.57
2023-03-13T02:30:23.662Z,1.13
2023-03-13T02:32:52.510Z,1.13
2023-03-13T02:35:24.614Z,1.07
2023-03-13T02:37:58.481Z,0.57
2023-03-13T02:40:31.373Z,1.33
2023-03-13T02:43:04.239Z,1.27
2023-03-13T02:45:32.757Z,1.60
2023-03-13T02:48:01.290Z,0.93
2023-03-13T02:50:30.293Z,0.90
2023-03-13T02:53:02.892Z,1.10
2023-03-13T02:55:38.243Z,1.37
2023-03-13T02:58:08.974Z,1.13
2023-03-13T03:00:39.110Z,0.80
2023-03-13T03:03:07.481Z,1.07
2023-03-13T03:05:36.044Z,1.17
2023-03-13T03:08:04.520Z,0.50
2023-03-13T03:10:33.096Z,0.73
2023-03-13T03:13:01.614Z,0.83
2023-03-13T03:15:32.857Z,2.30
2023-03-13T03:18:01.346Z,0.50
2023-03-13T03:20:29.871Z,0.40
2023-03-13T03:22:58.363Z,0.30
2023-03-13T03:25:28.190Z,1.33
2023-03-13T03:27:56.916Z,1.17
2023-03-13T03:30:25.344Z,0.70
2023-03-13T03:32:55.425Z,2.13
2023-03-13T03:35:24.774Z,0.47
2023-03-13T03:37:53.360Z,0.50
2023-03-13T03:40:23.274Z,2.83
2023-03-13T03:42:51.817Z,0.73
2023-03-13T03:45:20.259Z,2.17
2023-03-13T03:47:48.671Z,0.60
2023-03-13T03:50:19.047Z,1.23
2023-03-13T03:52:56.412Z,1.43
2023-03-13T03:55:26.724Z,1.07
2023-03-13T03:57:55.342Z,2.47
2023-03-13T04:00:45.998Z,1.10
2023-03-13T04:03:16.995Z,0.30
2023-03-13T04:05:47.011Z,0.33
2023-03-13T04:08:15.745Z,3.13
2023-03-13T04:10:44.319Z,0.50
2023-03-13T04:13:13.335Z,1.37
2023-03-13T04:15:42.113Z,1.80
2023-03-13T04:18:13.252Z,1.00
2023-03-13T04:20:42.090Z,0.60
2023-03-13T04:23:12.908Z,0.63
2023-03-13T04:25:41.437Z,0.53
2023-03-13T04:28:12.967Z,0.60
2023-03-13T04:30:45.891Z,0.40
2023-03-13T04:33:37.052Z,0.60
2023-03-13T04:36:21.270Z,0.90
2023-03-13T04:39:14.507Z,1.00
2023-03-13T04:42:14.474Z,0.77
2023-03-13T04:45:06.462Z,0.83
2023-03-13T04:47:53.858Z,1.10
2023-03-13T04:50:40.825Z,0.50
2023-03-13T04:53:22.513Z,1.57
2023-03-13T04:56:06.915Z,0.57
2023-03-13T04:59:05.284Z,0.77
2023-03-13T05:01:58.515Z,0.73
2023-03-13T05:04:47.170Z,1.00
2023-03-13T05:07:47.346Z,2.80
2023-03-13T05:10:34.155Z,0.57
2023-03-13T05:13:36.172Z,0.97
2023-03-13T05:16:37.017Z,1.00
2023-03-13T05:19:15.556Z,0.60
2023-03-13T05:22:02.389Z,1.20
2023-03-13T05:24:51.283Z,1.33
2023-03-13T05:27:33.469Z,0.53
2023-03-13T05:30:35.795Z,0.70
2023-03-13T05:33:30.292Z,9.93
2023-03-13T05:36:17.341Z,0.70
2023-03-13T05:39:03.013Z,1.33
2023-03-13T05:41:45.003Z,0.60
2023-03-13T05:44:29.729Z,1.80
2023-03-13T05:47:19.503Z,0.70
2023-03-13T05:50:07.916Z,1.63
2023-03-13T05:52:51.059Z,2.03
2023-03-13T05:55:57.791Z,1.40
2023-03-13T05:58:41.749Z,3.03
2023-03-13T06:01:36.039Z,1.30
2023-03-13T06:04:18.816Z,3.27
2023-03-13T06:06:48.119Z,0.70
2023-03-13T06:09:17.898Z,1.60
2023-03-13T06:11:47.000Z,0.87
2023-03-13T06:14:15.457Z,1.30
2023-03-13T06:17:10.285Z,1.13
2023-03-13T06:19:40.345Z,0.80
2023-03-13T06:22:08.899Z,0.93
2023-03-13T06:24:37.879Z,1.03
2023-03-13T06:27:12.746Z,0.60
2023-03-13T06:29:41.366Z,3.40
2023-03-13T06:32:10.170Z,1.53
2023-03-13T06:34:40.057Z,2.60
2023-03-13T06:37:08.503Z,0.63
2023-03-13T06:39:36.908Z,0.67
2023-03-13T06:42:05.829Z,0.70
2023-03-13T06:44:34.281Z,0.67
2023-03-13T06:47:02.832Z,1.70
2023-03-13T06:49:31.340Z,3.37
2023-03-13T06:52:01.329Z,3.17
2023-03-13T06:54:29.856Z,0.90
2023-03-13T06:56:58.154Z,1.37
2023-03-13T06:59:26.794Z,2.37
2023-03-13T07:01:55.115Z,3.00
2023-03-13T07:04:23.603Z,2.23
2023-03-13T07:06:53.760Z,1.40
2023-03-13T07:09:23.841Z,0.83
2023-03-13T07:12:00.005Z,1.80
2023-03-13T07:14:28.498Z,1.70
2023-03-13T07:16:58.309Z,1.47
2023-03-13T07:19:27.603Z,1.90
2023-03-13T07:21:57.132Z,1.60
2023-03-13T07:24:27.245Z,1.30
2023-03-13T07:27:06.207Z,7.40
2023-03-13T07:29:36.136Z,2.10
2023-03-13T07:32:04.814Z,2.43
2023-03-13T07:34:33.422Z,2.83
2023-03-13T07:37:01.723Z,5.70
2023-03-13T07:39:31.636Z,4.50
2023-03-13T07:42:00.085Z,2.23
2023-03-13T07:44:28.493Z,4.67
2023-03-13T07:47:01.036Z,3.43
2023-03-13T07:49:29.579Z,8.53
2023-03-13T07:51:57.987Z,4.00
2023-03-13T07:54:26.634Z,3.03
2023-03-13T07:56:56.487Z,3.03
2023-03-13T07:59:24.948Z,2.67
2023-03-13T08:01:53.454Z,2.97
2023-03-13T08:04:22.012Z,7.10
2023-03-13T08:06:51.791Z,3.87
2023-03-13T08:09:20.456Z,4.97
2023-03-13T08:11:49.216Z,1.90
2023-03-13T08:14:19.382Z,4.20
2023-03-13T08:16:49.023Z,2.93
2023-03-13T08:19:17.519Z,2.87
2023-03-13T08:21:46.958Z,4.20
2023-03-13T08:24:16.365Z,6.30
2023-03-13T08:26:44.852Z,3.53
2023-03-13T08:29:14.615Z,2.73
2023-03-13T08:31:49.644Z,3.33
2023-03-13T08:34:20.051Z,3.40
2023-03-13T08:36:49.494Z,2.37
2023-03-13T08:39:19.766Z,2.80
2023-03-13T08:41:49.938Z,3.47
2023-03-13T08:44:21.606Z,2.90
2023-03-13T08:46:52.574Z,4.10
2023-03-13T08:49:21.140Z,6.00
2023-03-13T08:51:50.924Z,1.90
2023-03-13T08:54:19.371Z,3.10
2023-03-13T08:56:48.068Z,3.27
2023-03-13T08:59:16.754Z,3.07
2023-03-13T09:01:45.164Z,2.97
2023-03-13T09:04:16.765Z,1.70
2023-03-13T09:06:45.701Z,2.50
2023-03-13T09:09:15.493Z,5.77
2023-03-13T09:11:45.064Z,2.90
2023-03-13T09:14:17.916Z,2.17
2023-03-13T09:16:48.533Z,3.93
2023-03-13T09:19:20.268Z,4.63
2023-03-13T09:21:49.550Z,3.77
2023-03-13T09:24:18.301Z,4.70
2023-03-13T09:27:00.434Z,3.93
2023-03-13T09:29:30.302Z,4.23
2023-03-13T09:31:58.670Z,2.90
2023-03-13T09:34:28.481Z,4.67
2023-03-13T09:36:56.921Z,2.60
2023-03-13T09:39:25.423Z,2.43
2023-03-13T09:41:59.483Z,5.37
2023-03-13T09:44:31.192Z,2.67
2023-03-13T09:47:07.462Z,2.93
2023-03-13T09:49:41.430Z,4.67
2023-03-13T09:52:17.490Z,3.87
2023-03-13T09:54:50.675Z,4.97
2023-03-13T09:57:28.280Z,6.20
2023-03-13T10:00:04.300Z,3.33
2023-03-13T10:02:37.935Z,3.80
2023-03-13T10:05:17.573Z,6.13
2023-03-13T10:07:46.149Z,2.83
2023-03-13T10:10:18.175Z,2.90
2023-03-13T10:12:49.177Z,2.27
2023-03-13T10:15:40.136Z,4.20
2023-03-13T10:18:17.170Z,2.17
2023-03-13T10:20:49.097Z,2.67
2023-03-13T10:23:22.527Z,4.30
2023-03-13T10:25:50.946Z,2.70
2023-03-13T10:28:21.954Z,2.37
2023-03-13T10:30:55.436Z,2.40
2023-03-13T10:33:26.768Z,2.43
2023-03-13T10:36:09.059Z,2.23
2023-03-13T10:38:50.151Z,1.43
2023-03-13T10:41:29.172Z,2.17
2023-03-13T10:44:01.675Z,2.07
2023-03-13T10:46:31.953Z,4.67
2023-03-13T10:49:04.284Z,6.03
2023-03-13T10:51:43.452Z,5.30
2023-03-13T10:54:23.981Z,5.13
2023-03-13T10:56:53.296Z,4.73
2023-03-13T10:59:24.954Z,6.80
2023-03-13T11:01:54.664Z,5.00
2023-03-13T11:04:32.269Z,6.80
2023-03-13T11:07:09.177Z,9.40
2023-03-13T11:09:38.161Z,9.77
2023-03-13T11:12:21.849Z,7.60
2023-03-13T11:14:57.688Z,10.90
2023-03-13T11:17:37.082Z,9.20
2023-03-13T11:20:26.537Z,8.50
2023-03-13T11:23:11.399Z,7.87
2023-03-13T11:25:48.066Z,13.13
2023-03-13T11:28:27.975Z,10.43
2023-03-13T11:31:05.362Z,8.17
2023-03-13T11:33:45.089Z,7.43
2023-03-13T11:36:25.785Z,9.80
2023-03-13T11:39:03.822Z,9.83
2023-03-13T11:41:47.335Z,9.63
2023-03-13T11:44:29.454Z,11.47
2023-03-13T11:47:15.272Z,12.43
2023-03-13T11:49:59.225Z,6.10
2023-03-13T11:52:42.066Z,8.30
2023-03-13T11:55:39.012Z,8.20
2023-03-13T11:58:35.328Z,8.03
2023-03-13T12:01:07.744Z,11.67
2023-03-13T12:03:44.477Z,9.33
2023-03-13T12:06:28.420Z,8.63
2023-03-13T12:09:04.439Z,8.23
2023-03-13T12:11:44.482Z,7.43
2023-03-13T12:14:17.517Z,7.77
2023-03-13T12:16:50.717Z,7.90
2023-03-13T12:19:25.395Z,10.37
2023-03-13T12:21:56.917Z,9.37
2023-03-13T12:24:32.624Z,8.37
2023-03-13T12:27:10.546Z,9.27
2023-03-13T12:29:49.670Z,10.37
2023-03-13T12:32:26.096Z,8.83
2023-03-13T12:35:02.064Z,9.23
2023-03-13T12:37:40.260Z,10.57
2023-03-13T12:40:18.014Z,11.90
2023-03-13T12:42:56.359Z,16.63
2023-03-13T12:45:29.753Z,8.03
2023-03-13T12:48:21.552Z,6.30
2023-03-13T12:51:09.578Z,10.47
2023-03-13T12:54:06.687Z,9.27
2023-03-13T12:56:46.541Z,6.53
2023-03-13T12:59:21.908Z,6.83
2023-03-13T13:01:54.668Z,11.07
2023-03-13T13:04:26.797Z,10.30
2023-03-13T13:06:59.847Z,9.23
2023-03-13T13:09:30.986Z,5.90
2023-03-13T13:12:03.539Z,6.47
2023-03-13T13:15:05.770Z,8.47
2023-03-13T13:18:09.324Z,11.57
2023-03-13T13:20:46.079Z,9.13
2023-03-13T13:23:37.765Z,8.13
2023-03-13T13:26:48.976Z,8.07
2023-03-13T13:29:58.599Z,7.07
2023-03-13T13:32:43.812Z,14.03
2023-03-13T13:35:33.060Z,9.17
2023-03-13T13:38:41.205Z,11.17
2023-03-13T13:41:34.569Z,12.67
2023-03-13T13:44:30.527Z,8.53
2023-03-13T13:47:02.221Z,13.20
2023-03-13T13:49:37.664Z,12.00
2023-03-13T13:52:46.785Z,10.90
2023-03-13T13:55:47.192Z,14.43
2023-03-13T13:58:24.016Z,9.43
2023-03-13T14:00:55.912Z,11.17
2023-03-13T14:03:26.334Z,11.40
2023-03-13T14:05:58.256Z,9.10
2023-03-13T14:08:31.229Z,10.70
2023-03-13T14:11:25.960Z,8.33
2023-03-13T14:14:17.466Z,12.90
2023-03-13T14:16:47.695Z,11.63
2023-03-13T14:19:25.298Z,12.73
2023-03-13T14:22:00.961Z,15.20
2023-03-13T14:24:29.519Z,13.10
2023-03-13T14:26:59.547Z,12.17
2023-03-13T14:29:28.212Z,12.60
2023-03-13T14:31:58.621Z,9.93
2023-03-13T14:34:30.988Z,17.83
2023-03-13T14:37:17.620Z,12.77
2023-03-13T14:39:49.087Z,12.93
2023-03-13T14:42:20.689Z,14.20
2023-03-13T14:44:50.635Z,10.13
2023-03-13T14:47:25.542Z,13.87
2023-03-13T14:49:59.374Z,11.50
2023-03-13T14:52:29.516Z,9.40
2023-03-13T14:55:02.304Z,17.07
2023-03-13T14:57:33.187Z,13.77
2023-03-13T15:00:40.425Z,15.67
2023-03-13T15:03:22.024Z,10.43
2023-03-13T15:05:52.330Z,15.43
2023-03-13T15:08:24.781Z,11.33
2023-03-13T15:10:53.376Z,13.23
2023-03-13T15:13:29.429Z,15.43
2023-03-13T15:15:57.981Z,14.83
2023-03-13T15:18:28.439Z,12.07
2023-03-13T15:20:59.242Z,15.07
2023-03-13T15:23:28.389Z,11.43
2023-03-13T15:25:56.739Z,8.40
2023-03-13T15:28:26.616Z,16.13
2023-03-13T15:30:55.119Z,13.87
2023-03-13T15:33:25.599Z,12.00
2023-03-13T15:35:54.551Z,11.47
2023-03-13T15:38:25.522Z,13.20
2023-03-13T15:40:55.280Z,13.67
2023-03-13T15:43:26.625Z,19.00
2023-03-13T15:45:55.497Z,12.47
2023-03-13T15:48:27.861Z,9.03
2023-03-13T15:50:59.178Z,13.13
2023-03-13T15:53:29.652Z,12.57
2023-03-13T15:56:00.338Z,15.43
2023-03-13T15:58:31.676Z,16.30
2023-03-13T16:01:00.677Z,16.97
2023-03-13T16:03:30.309Z,15.60
2023-03-13T16:06:44.035Z,10.67
2023-03-13T16:09:17.469Z,14.53
2023-03-13T16:11:46.470Z,20.37
2023-03-13T16:14:16.228Z,15.20
2023-03-13T16:16:53.254Z,21.23
2023-03-13T16:19:33.109Z,15.83
2023-03-13T16:22:04.627Z,17.40
2023-03-13T16:24:32.994Z,13.50
2023-03-13T16:27:01.732Z,14.70
2023-03-13T16:29:31.611Z,17.27
2023-03-13T16:32:00.010Z,14.13
2023-03-13T16:34:28.610Z,14.43
2023-03-13T16:36:57.045Z,10.00
2023-03-13T16:39:25.504Z,14.53
2023-03-13T16:41:53.984Z,17.13
2023-03-13T16:44:22.343Z,14.67
2023-03-13T16:47:04.767Z,15.47
2023-03-13T16:49:34.204Z,16.03
2023-03-13T16:52:02.657Z,17.60
2023-03-13T16:54:31.036Z,13.40
2023-03-13T16:57:01.141Z,15.20
2023-03-13T16:59:30.921Z,14.07
2023-03-13T17:02:00.715Z,20.60
2023-03-13T17:04:29.206Z,13.40
2023-03-13T17:06:58.197Z,17.43
2023-03-13T17:09:26.887Z,15.97
2023-03-13T17:11:55.328Z,16.43
2023-03-13T17:14:23.743Z,20.00
2023-03-13T17:16:57.830Z,15.07
2023-03-13T17:19:27.672Z,19.17
2023-03-13T17:21:58.344Z,15.43
2023-03-13T17:24:27.770Z,15.13
2023-03-13T17:26:56.251Z,24.43
2023-03-13T17:29:24.946Z,11.33
2023-03-13T17:31:53.381Z,17.20
2023-03-13T17:34:24.238Z,20.30
2023-03-13T17:37:00.020Z,15.27
2023-03-13T17:39:29.895Z,18.17
2023-03-13T17:42:01.241Z,11.00
2023-03-13T17:44:31.116Z,18.27
2023-03-13T17:47:36.334Z,13.27
2023-03-13T17:51:01.845Z,20.63
2023-03-13T17:53:45.858Z,15.80
2023-03-13T17:56:56.473Z,11.73
2023-03-13T17:59:42.107Z,18.20
2023-03-13T18:02:50.518Z,25.00
2023-03-13T18:05:42.443Z,16.33
2023-03-13T18:08:13.074Z,21.37
2023-03-13T18:10:42.844Z,16.70
2023-03-13T18:13:12.276Z,12.63
2023-03-13T18:15:41.737Z,17.33
2023-03-13T18:18:16.436Z,18.73
2023-03-13T18:20:44.916Z,15.77
2023-03-13T18:23:13.357Z,23.00
2023-03-13T18:25:43.175Z,15.43
2023-03-13T18:28:13.460Z,14.80
2023-03-13T18:30:41.937Z,12.83
2023-03-13T18:34:15.453Z,17.97
2023-03-13T18:36:54.722Z,17.33
2023-03-13T18:39:23.452Z,21.03
2023-03-13T18:41:53.377Z,19.43
2023-03-13T18:44:26.976Z,16.73
2023-03-13T18:46:57.502Z,20.87
2023-03-13T18:49:27.171Z,22.67
2023-03-13T18:51:55.672Z,16.03
2023-03-13T18:54:24.087Z,16.57
2023-03-13T18:56:54.020Z,21.83
2023-03-13T18:59:32.523Z,22.67
2023-03-13T19:02:01.021Z,17.20
2023-03-13T19:05:05.979Z,14.80
2023-03-13T19:07:34.982Z,15.57
2023-03-13T19:10:09.427Z,22.40
2023-03-13T19:12:39.411Z,19.47
2023-03-13T19:15:36.346Z,21.97
2023-03-13T19:18:25.695Z,21.20
2023-03-13T19:20:56.106Z,19.83
2023-03-13T19:23:24.950Z,20.53
2023-03-13T19:25:53.568Z,22.73
2023-03-13T19:28:23.456Z,15.77
2023-03-13T19:30:51.833Z,20.67
2023-03-13T19:33:20.233Z,19.70
2023-03-13T19:35:48.684Z,14.30
2023-03-13T19:38:17.280Z,20.93
2023-03-13T19:40:46.797Z,20.77
2023-03-13T19:43:15.144Z,21.43
2023-03-13T19:45:44.936Z,13.97
2023-03-13T19:48:13.367Z,16.23
2023-03-13T19:50:41.771Z,19.57
2023-03-13T19:53:10.232Z,19.07
2023-03-13T19:55:38.623Z,17.30
2023-03-13T19:58:07.772Z,22.00
2023-03-13T20:00:37.399Z,16.53
2023-03-13T20:03:07.178Z,18.27
2023-03-13T20:05:35.594Z,21.73
2023-03-13T20:08:04.019Z,20.77
2023-03-13T20:10:32.499Z,19.63
2023-03-13T20:13:00.974Z,21.93
2023-03-13T20:15:29.486Z,21.93
2023-03-13T20:17:58.076Z,25.00
2023-03-13T20:20:27.915Z,19.27
2023-03-13T20:22:56.883Z,20.27
2023-03-13T20:25:25.419Z,26.00
2023-03-13T20:27:53.734Z,18.00
2023-03-13T20:30:22.239Z,16.77
2023-03-13T20:32:59.276Z,19.77
2023-03-13T20:35:30.572Z,18.57
2023-03-13T20:38:00.972Z,22.53
2023-03-13T20:40:32.028Z,20.77
2023-03-13T20:43:01.048Z,14.63
2023-03-13T20:45:30.905Z,15.13
2023-03-13T20:47:59.824Z,19.73
2023-03-13T20:50:28.253Z,19.93
2023-03-13T20:52:58.243Z,19.83
2023-03-13T20:55:26.770Z,17.90
2023-03-13T20:57:55.157Z,13.97
2023-03-13T21:00:26.312Z,17.93
2023-03-13T21:02:55.183Z,18.73
2023-03-13T21:05:25.650Z,8.93
2023-03-13T21:07:55.511Z,12.83
2023-03-13T21:10:25.669Z,12.10
2023-03-13T21:12:54.221Z,13.53
2023-03-13T21:15:22.673Z,10.77
2023-03-13T21:17:51.123Z,14.63
2023-03-13T21:20:19.984Z,13.77
2023-03-13T21:22:48.562Z,14.37
2023-03-13T21:25:19.318Z,11.70
2023-03-13T21:27:49.323Z,18.40
2023-03-13T21:30:20.526Z,15.20
2023-03-13T21:32:49.617Z,11.67
2023-03-13T21:35:18.105Z,9.53
2023-03-13T21:37:46.465Z,14.40
2023-03-13T21:40:20.066Z,11.50
2023-03-13T21:42:51.908Z,13.93
2023-03-13T21:45:20.306Z,9.70
2023-03-13T21:47:48.773Z,13.10
2023-03-13T21:50:17.252Z,9.20
2023-03-13T21:52:45.735Z,8.30
2023-03-13T21:55:15.341Z,8.93
2023-03-13T21:57:43.767Z,7.93
2023-03-13T22:00:15.975Z,9.00
2023-03-13T22:02:44.640Z,6.83
2023-03-13T22:05:13.257Z,6.83
2023-03-13T22:07:41.779Z,4.13
2023-03-13T22:10:11.271Z,5.73
2023-03-13T22:12:39.765Z,1.90
2023-03-13T22:15:09.503Z,2.50
2023-03-13T22:17:39.285Z,0.80
2023-03-13T22:20:10.519Z,0.70
2023-03-13T22:22:39.027Z,1.30
2023-03-13T22:25:08.121Z,1.47
2023-03-13T22:27:36.746Z,1.13
2023-03-13T22:30:06.324Z,2.30
2023-03-13T22:32:34.830Z,2.17
2023-03-13T22:35:04.894Z,1.07
2023-03-13T22:37:33.324Z,0.93
2023-03-13T22:40:01.771Z,1.63
2023-03-13T22:42:30.386Z,0.40
2023-03-13T22:44:58.745Z,0.70
2023-03-13T22:47:27.193Z,2.00
2023-03-13T22:49:56.094Z,0.27
2023-03-13T22:52:30.788Z,0.43
2023-03-13T22:54:59.402Z,0.27
2023-03-13T22:57:29.349Z,2.00
2023-03-13T22:59:59.269Z,0.47
2023-03-13T23:02:28.290Z,0.30
2023-03-13T23:04:58.692Z,0.20
2023-03-13T23:07:29.793Z,0.20
2023-03-13T23:09:59.233Z,0.00
2023-03-13T23:12:30.939Z,0.47
2023-03-13T23:15:00.214Z,0.83
2023-03-13T23:17:31.362Z,0.67
2023-03-13T23:20:02.413Z,0.90
2023-03-13T23:22:33.070Z,0.50
2023-03-13T23:25:02.341Z,0.90
2023-03-13T23:27:31.928Z,1.10
2023-03-13T23:30:04.324Z,1.10
2023-03-13T23:32:36.494Z,0.67
2023-03-13T23:35:05.331Z,0.30
2023-03-13T23:37:35.307Z,0.50
2023-03-13T23:40:05.453Z,2.17
2023-03-13T23:42:33.820Z,0.53
2023-03-13T23:45:02.688Z,1.40
2023-03-13T23:47:31.071Z,0.63
2023-03-13T23:49:59.454Z,1.37
2023-03-13T23:52:28.183Z,0.30
2023-03-13T23:54:58.601Z,0.43
2023-03-13T23:57:27.603Z,1.03
2023-03-13T23:59:56.196Z,0.60
